Informes METAR cercanos


LEVC - Manises, Valencia, ESPAÑA
Distance from station: NNE 72km
Actualización: 26/09/2022 11:00
Parcialmente nuboso
Parcialmente nuboso
 Viento del NO
Viento: NO 9 km/h
Temperatura: 21°C
Rocío: 13°C
Humedad: 60%
Barómetro: 1013 hPa
Clouds: Parcialmente nuboso
Visibility: 10 km
Cloud details: Algunas nubes 762 m
Parcialmente nuboso 1219 m
2022/09/26 09:00 LEVC 260900Z 32005KT 290V350 9999 FEW025 SCT040 21/13 Q1013 NOSIG
LEAL - El Altet, Alicante, ESPAÑA
Distance from station: S 70km
Actualización: 26/09/2022 11:00
Algunas nubes
Algunas nubes
 Viento del varies
Viento: varies 6 km/h
Temperatura: 24°C
Rocío: 15°C
Humedad: 57%
Barómetro: 1012 hPa
Clouds: Algunas nubes
Visibility: 10 km
Cloud details: Algunas nubes 914 m
2022/09/26 09:00 LEAL 260900Z VRB03KT 9999 FEW030TCU 24/15 Q1012 NOSIG
 
LELC - San Javier, Murcia, ESPAÑA
Distance from station: SSO 188km
Actualización: 26/09/2022 11:00
Algunas nubes
Algunas nubes
 Viento del N
Viento: N 15 km/h
Temperatura: 24°C
Rocío: 17°C
Humedad: 65%
Barómetro: 1012 hPa
Clouds: Algunas nubes
Visibility: 10 km
Cloud details: Algunas nubes 914 m
2022/09/26 09:00 LELC 260900Z 01008KT 340V050 9999 FEW030 24/17 Q1012 NOSIG
LEAB - Los Llanos, Albacete, ESPAÑA
Distance from station: O 143km
Actualización: 26/09/2022 11:00
Muy nuboso
Muy nuboso
 Viento del NNE
Viento: NNE 6 km/h
Temperatura: 16°C
Rocío: 12°C
Humedad: 77%
Barómetro: 1015 hPa
Clouds: Muy nuboso
Visibility: 10 km
Cloud details: Muy nuboso 488 m
2022/09/26 09:00 LEAB 260900Z 03003KT 340V100 9999 BKN016 16/12 Q1015 NOSIG